sensor_id;sensor_type;location;lat;lon;timestamp;temperature;humidity
64599;SHT31;51008;51.504;11.548;2023-02-21T00:02:58;8.47;90.62
64599;SHT31;51008;51.504;11.548;2023-02-21T00:07:59;8.42;90.75
64599;SHT31;51008;51.504;11.548;2023-02-21T00:13:00;8.41;90.86
64599;SHT31;51008;51.504;11.548;2023-02-21T00:18:00;8.36;91.17
64599;SHT31;51008;51.504;11.548;2023-02-21T00:23:01;8.37;91.36
64599;SHT31;51008;51.504;11.548;2023-02-21T00:28:02;8.38;91.33
64599;SHT31;51008;51.504;11.548;2023-02-21T00:33:03;8.48;90.95
64599;SHT31;51008;51.504;11.548;2023-02-21T00:38:04;8.44;91.04
64599;SHT31;51008;51.504;11.548;2023-02-21T00:43:05;8.49;90.97
64599;SHT31;51008;51.504;11.548;2023-02-21T00:48:06;8.42;91.20
64599;SHT31;51008;51.504;11.548;2023-02-21T00:53:07;8.48;91.23
64599;SHT31;51008;51.504;11.548;2023-02-21T00:58:08;8.44;91.46
64599;SHT31;51008;51.504;11.548;2023-02-21T01:03:09;8.45;91.42
64599;SHT31;51008;51.504;11.548;2023-02-21T01:08:10;8.49;91.34
64599;SHT31;51008;51.504;11.548;2023-02-21T01:13:14;8.52;91.35
64599;SHT31;51008;51.504;11.548;2023-02-21T01:18:15;8.61;90.87
64599;SHT31;51008;51.504;11.548;2023-02-21T01:23:16;8.58;91.04
64599;SHT31;51008;51.504;11.548;2023-02-21T01:28:17;8.58;91.30
64599;SHT31;51008;51.504;11.548;2023-02-21T01:33:18;8.61;91.44
64599;SHT31;51008;51.504;11.548;2023-02-21T01:38:19;8.58;91.67
64599;SHT31;51008;51.504;11.548;2023-02-21T01:43:22;8.65;91.68
64599;SHT31;51008;51.504;11.548;2023-02-21T01:48:24;8.59;91.68
64599;SHT31;51008;51.504;11.548;2023-02-21T01:53:26;8.62;91.73
64599;SHT31;51008;51.504;11.548;2023-02-21T01:58:29;8.62;91.54
64599;SHT31;51008;51.504;11.548;2023-02-21T02:03:32;8.66;91.48
64599;SHT31;51008;51.504;11.548;2023-02-21T02:08:34;8.71;91.40
64599;SHT31;51008;51.504;11.548;2023-02-21T02:19:17;8.66;91.78
64599;SHT31;51008;51.504;11.548;2023-02-21T02:24:31;8.62;91.98
64599;SHT31;51008;51.504;11.548;2023-02-21T02:30:10;8.71;91.71
64599;SHT31;51008;51.504;11.548;2023-02-21T02:35:21;8.65;91.87
64599;SHT31;51008;51.504;11.548;2023-02-21T02:40:58;8.66;91.80
64599;SHT31;51008;51.504;11.548;2023-02-21T02:46:21;8.68;91.70
64599;SHT31;51008;51.504;11.548;2023-02-21T02:51:24;8.65;91.89
64599;SHT31;51008;51.504;11.548;2023-02-21T02:56:26;8.66;92.09
64599;SHT31;51008;51.504;11.548;2023-02-21T03:02:03;8.64;92.37
64599;SHT31;51008;51.504;11.548;2023-02-21T03:12:37;8.52;92.50
64599;SHT31;51008;51.504;11.548;2023-02-21T03:17:47;8.41;92.81
64599;SHT31;51008;51.504;11.548;2023-02-21T03:22:52;8.34;93.15
64599;SHT31;51008;51.504;11.548;2023-02-21T03:27:54;8.31;93.28
64599;SHT31;51008;51.504;11.548;2023-02-21T03:32:59;8.28;93.52
64599;SHT31;51008;51.504;11.548;2023-02-21T03:38:00;8.24;93.63
64599;SHT31;51008;51.504;11.548;2023-02-21T03:43:04;8.16;94.06
64599;SHT31;51008;51.504;11.548;2023-02-21T03:48:09;8.24;93.84
64599;SHT31;51008;51.504;11.548;2023-02-21T03:53:12;8.24;93.84
64599;SHT31;51008;51.504;11.548;2023-02-21T03:58:16;8.21;94.02
64599;SHT31;51008;51.504;11.548;2023-02-21T04:03:18;8.17;94.20
64599;SHT31;51008;51.504;11.548;2023-02-21T04:08:28;8.14;94.29
64599;SHT31;51008;51.504;11.548;2023-02-21T04:13:30;8.10;94.42
64599;SHT31;51008;51.504;11.548;2023-02-21T04:18:33;8.10;94.45
64599;SHT31;51008;51.504;11.548;2023-02-21T04:23:36;8.10;94.65
64599;SHT31;51008;51.504;11.548;2023-02-21T04:28:38;8.07;94.77
64599;SHT31;51008;51.504;11.548;2023-02-21T04:33:40;8.10;94.97
64599;SHT31;51008;51.504;11.548;2023-02-21T04:38:43;8.06;94.94
64599;SHT31;51008;51.504;11.548;2023-02-21T04:43:44;8.17;94.91
64599;SHT31;51008;51.504;11.548;2023-02-21T04:48:47;8.14;94.91
64599;SHT31;51008;51.504;11.548;2023-02-21T04:53:49;8.21;94.85
64599;SHT31;51008;51.504;11.548;2023-02-21T04:58:50;8.30;94.69
64599;SHT31;51008;51.504;11.548;2023-02-21T05:03:51;8.34;94.51
64599;SHT31;51008;51.504;11.548;2023-02-21T05:08:52;8.41;94.24
64599;SHT31;51008;51.504;11.548;2023-02-21T05:13:54;8.38;94.29
64599;SHT31;51008;51.504;11.548;2023-02-21T05:18:55;8.40;94.15
64599;SHT31;51008;51.504;11.548;2023-02-21T05:23:56;8.38;94.13
64599;SHT31;51008;51.504;11.548;2023-02-21T05:28:57;8.37;94.05
64599;SHT31;51008;51.504;11.548;2023-02-21T05:33:58;8.23;94.39
64599;SHT31;51008;51.504;11.548;2023-02-21T05:38:59;8.16;94.75
64599;SHT31;51008;51.504;11.548;2023-02-21T05:44:00;8.21;94.92
64599;SHT31;51008;51.504;11.548;2023-02-21T05:49:03;8.30;94.82
64599;SHT31;51008;51.504;11.548;2023-02-21T05:54:05;8.44;94.32
64599;SHT31;51008;51.504;11.548;2023-02-21T05:59:07;8.47;94.28
64599;SHT31;51008;51.504;11.548;2023-02-21T06:04:08;8.54;94.00
64599;SHT31;51008;51.504;11.548;2023-02-21T06:09:10;8.64;93.60
64599;SHT31;51008;51.504;11.548;2023-02-21T06:14:16;8.66;93.36
64599;SHT31;51008;51.504;11.548;2023-02-21T06:19:17;8.66;93.47
64599;SHT31;51008;51.504;11.548;2023-02-21T06:24:18;8.72;93.13
64599;SHT31;51008;51.504;11.548;2023-02-21T06:29:19;8.73;93.00
64599;SHT31;51008;51.504;11.548;2023-02-21T06:34:20;8.76;92.96
64599;SHT31;51008;51.504;11.548;2023-02-21T06:39:22;8.69;92.70
64599;SHT31;51008;51.504;11.548;2023-02-21T06:44:23;8.62;92.86
64599;SHT31;51008;51.504;11.548;2023-02-21T06:49:24;8.56;93.22
64599;SHT31;51008;51.504;11.548;2023-02-21T06:54:25;8.51;93.60
64599;SHT31;51008;51.504;11.548;2023-02-21T06:59:27;8.59;93.62
64599;SHT31;51008;51.504;11.548;2023-02-21T07:04:28;8.72;93.19
64599;SHT31;51008;51.504;11.548;2023-02-21T07:09:29;8.79;92.71
64599;SHT31;51008;51.504;11.548;2023-02-21T07:14:30;8.89;92.62
64599;SHT31;51008;51.504;11.548;2023-02-21T07:19:31;8.91;92.37
64599;SHT31;51008;51.504;11.548;2023-02-21T07:24:32;9.00;92.20
64599;SHT31;51008;51.504;11.548;2023-02-21T07:29:33;9.00;92.22
64599;SHT31;51008;51.504;11.548;2023-02-21T07:34:34;9.07;91.83
64599;SHT31;51008;51.504;11.548;2023-02-21T07:39:35;9.07;92.18
64599;SHT31;51008;51.504;11.548;2023-02-21T07:44:36;9.08;92.23
64599;SHT31;51008;51.504;11.548;2023-02-21T07:49:38;9.96;89.98
64599;SHT31;51008;51.504;11.548;2023-02-21T07:54:39;10.60;86.95
64599;SHT31;51008;51.504;11.548;2023-02-21T07:59:40;10.35;88.21
64599;SHT31;51008;51.504;11.548;2023-02-21T08:04:41;10.06;88.95
64599;SHT31;51008;51.504;11.548;2023-02-21T08:09:42;9.93;89.35
64599;SHT31;51008;51.504;11.548;2023-02-21T08:14:43;10.00;89.43
64599;SHT31;51008;51.504;11.548;2023-02-21T08:19:44;10.41;87.41
64599;SHT31;51008;51.504;11.548;2023-02-21T08:24:48;10.65;86.81
64599;SHT31;51008;51.504;11.548;2023-02-21T08:29:50;10.66;86.17
64599;SHT31;51008;51.504;11.548;2023-02-21T08:34:51;10.79;85.75
64599;SHT31;51008;51.504;11.548;2023-02-21T08:39:52;10.63;86.28
64599;SHT31;51008;51.504;11.548;2023-02-21T08:44:53;10.65;85.72
64599;SHT31;51008;51.504;11.548;2023-02-21T08:49:54;10.70;85.78
64599;SHT31;51008;51.504;11.548;2023-02-21T08:54:55;10.69;85.67
64599;SHT31;51008;51.504;11.548;2023-02-21T08:59:56;10.42;86.10
64599;SHT31;51008;51.504;11.548;2023-02-21T09:04:57;10.32;86.60
64599;SHT31;51008;51.504;11.548;2023-02-21T09:10:00;10.27;86.98
64599;SHT31;51008;51.504;11.548;2023-02-21T09:15:01;10.39;86.52
64599;SHT31;51008;51.504;11.548;2023-02-21T09:20:07;10.44;86.38
64599;SHT31;51008;51.504;11.548;2023-02-21T09:25:08;10.49;86.36
64599;SHT31;51008;51.504;11.548;2023-02-21T09:30:18;10.58;86.26
64599;SHT31;51008;51.504;11.548;2023-02-21T09:35:21;10.66;85.93
64599;SHT31;51008;51.504;11.548;2023-02-21T09:45:25;11.17;83.67
64599;SHT31;51008;51.504;11.548;2023-02-21T09:50:33;11.51;83.60
64599;SHT31;51008;51.504;11.548;2023-02-21T09:55:38;12.31;81.83
64599;SHT31;51008;51.504;11.548;2023-02-21T10:00:40;12.84;78.97
64599;SHT31;51008;51.504;11.548;2023-02-21T10:11:05;13.91;75.08
64599;SHT31;51008;51.504;11.548;2023-02-21T10:16:17;13.45;75.46
64599;SHT31;51008;51.504;11.548;2023-02-21T10:21:40;13.34;76.02
64599;SHT31;51008;51.504;11.548;2023-02-21T10:26:47;13.49;76.50
64599;SHT31;51008;51.504;11.548;2023-02-21T10:31:56;13.35;75.63
64599;SHT31;51008;51.504;11.548;2023-02-21T10:42:42;13.04;77.28
64599;SHT31;51008;51.504;11.548;2023-02-21T10:47:47;13.42;76.23
64599;SHT31;51008;51.504;11.548;2023-02-21T10:52:50;13.76;75.27
64599;SHT31;51008;51.504;11.548;2023-02-21T10:57:56;13.76;74.51
64599;SHT31;51008;51.504;11.548;2023-02-21T11:03:06;14.24;73.73
64599;SHT31;51008;51.504;11.548;2023-02-21T11:08:08;14.26;73.25
64599;SHT31;51008;51.504;11.548;2023-02-21T11:13:14;14.07;73.38
64599;SHT31;51008;51.504;11.548;2023-02-21T11:18:23;14.52;73.39
64599;SHT31;51008;51.504;11.548;2023-02-21T11:23:29;14.53;71.32
64599;SHT31;51008;51.504;11.548;2023-02-21T11:28:36;14.57;72.41
64599;SHT31;51008;51.504;11.548;2023-02-21T11:33:40;14.46;73.42
64599;SHT31;51008;51.504;11.548;2023-02-21T11:44:24;15.11;70.73
64599;SHT31;51008;51.504;11.548;2023-02-21T11:49:37;14.91;70.61
64599;SHT31;51008;51.504;11.548;2023-02-21T11:54:42;15.12;70.17
64599;SHT31;51008;51.504;11.548;2023-02-21T12:05:31;14.99;69.96
64599;SHT31;51008;51.504;11.548;2023-02-21T12:27:08;14.81;70.29
64599;SHT31;51008;51.504;11.548;2023-02-21T12:37:19;14.18;71.09
64599;SHT31;51008;51.504;11.548;2023-02-21T12:47:41;13.76;72.01
64599;SHT31;51008;51.504;11.548;2023-02-21T13:09:06;13.63;72.35
64599;SHT31;51008;51.504;11.548;2023-02-21T13:14:19;13.62;73.06
64599;SHT31;51008;51.504;11.548;2023-02-21T13:19:24;13.71;73.52
64599;SHT31;51008;51.504;11.548;2023-02-21T13:24:56;13.67;73.09
64599;SHT31;51008;51.504;11.548;2023-02-21T13:30:13;13.55;73.71
64599;SHT31;51008;51.504;11.548;2023-02-21T13:35:21;13.36;74.04
64599;SHT31;51008;51.504;11.548;2023-02-21T13:40:34;13.21;74.93
64599;SHT31;51008;51.504;11.548;2023-02-21T13:45:35;13.19;74.54
64599;SHT31;51008;51.504;11.548;2023-02-21T13:55:38;13.15;72.14
64599;SHT31;51008;51.504;11.548;2023-02-21T14:10:47;13.07;71.99
64599;SHT31;51008;51.504;11.548;2023-02-21T14:15:49;13.03;69.40
64599;SHT31;51008;51.504;11.548;2023-02-21T14:20:53;13.04;69.95
64599;SHT31;51008;51.504;11.548;2023-02-21T14:25:59;13.03;68.77
64599;SHT31;51008;51.504;11.548;2023-02-21T14:31:01;13.08;67.01
64599;SHT31;51008;51.504;11.548;2023-02-21T14:36:07;13.22;66.38
64599;SHT31;51008;51.504;11.548;2023-02-21T14:46:25;13.42;65.91
64599;SHT31;51008;51.504;11.548;2023-02-21T14:57:06;13.73;63.19
64599;SHT31;51008;51.504;11.548;2023-02-21T15:02:26;13.66;64.05
64599;SHT31;51008;51.504;11.548;2023-02-21T15:07:48;13.60;64.51
64599;SHT31;51008;51.504;11.548;2023-02-21T15:12:55;13.59;65.29
64599;SHT31;51008;51.504;11.548;2023-02-21T15:18:06;13.23;68.14
64599;SHT31;51008;51.504;11.548;2023-02-21T15:23:10;13.00;67.84
64599;SHT31;51008;51.504;11.548;2023-02-21T15:28:22;12.87;68.30
64599;SHT31;51008;51.504;11.548;2023-02-21T15:33:23;12.60;68.39
64599;SHT31;51008;51.504;11.548;2023-02-21T15:43:47;12.25;69.65
64599;SHT31;51008;51.504;11.548;2023-02-21T15:48:50;12.18;70.71
64599;SHT31;51008;51.504;11.548;2023-02-21T15:54:20;12.01;72.03
64599;SHT31;51008;51.504;11.548;2023-02-21T15:59:26;11.80;72.80
64599;SHT31;51008;51.504;11.548;2023-02-21T16:04:34;11.65;73.77
64599;SHT31;51008;51.504;11.548;2023-02-21T16:09:37;11.62;74.27
64599;SHT31;51008;51.504;11.548;2023-02-21T16:14:46;11.61;74.18
64599;SHT31;51008;51.504;11.548;2023-02-21T16:20:22;11.56;74.35
64599;SHT31;51008;51.504;11.548;2023-02-21T16:25:22;11.48;74.59
64599;SHT31;51008;51.504;11.548;2023-02-21T16:30:25;11.40;75.22
64599;SHT31;51008;51.504;11.548;2023-02-21T16:35:27;11.28;75.96
64599;SHT31;51008;51.504;11.548;2023-02-21T16:40:33;11.20;76.37
64599;SHT31;51008;51.504;11.548;2023-02-21T16:45:34;11.10;76.73
64599;SHT31;51008;51.504;11.548;2023-02-21T16:50:37;10.94;77.30
64599;SHT31;51008;51.504;11.548;2023-02-21T16:55:39;10.77;78.00
64599;SHT31;51008;51.504;11.548;2023-02-21T17:00:40;10.72;78.35
64599;SHT31;51008;51.504;11.548;2023-02-21T17:05:41;10.58;78.69
64599;SHT31;51008;51.504;11.548;2023-02-21T17:10:42;10.48;79.07
64599;SHT31;51008;51.504;11.548;2023-02-21T17:15:43;10.49;79.30
64599;SHT31;51008;51.504;11.548;2023-02-21T17:20:44;10.48;78.93
64599;SHT31;51008;51.504;11.548;2023-02-21T17:25:45;10.49;78.24
64599;SHT31;51008;51.504;11.548;2023-02-21T17:30:46;10.49;78.06
64599;SHT31;51008;51.504;11.548;2023-02-21T17:35:47;10.53;77.97
64599;SHT31;51008;51.504;11.548;2023-02-21T17:40:48;10.50;78.54
64599;SHT31;51008;51.504;11.548;2023-02-21T17:45:49;10.48;78.58
64599;SHT31;51008;51.504;11.548;2023-02-21T17:50:50;10.42;78.58
64599;SHT31;51008;51.504;11.548;2023-02-21T17:55:51;10.39;78.63
64599;SHT31;51008;51.504;11.548;2023-02-21T18:00:52;10.38;78.03
64599;SHT31;51008;51.504;11.548;2023-02-21T18:05:53;10.41;78.63
64599;SHT31;51008;51.504;11.548;2023-02-21T18:10:54;10.39;79.04
64599;SHT31;51008;51.504;11.548;2023-02-21T18:15:55;10.34;79.30
64599;SHT31;51008;51.504;11.548;2023-02-21T18:20:56;10.31;79.11
64599;SHT31;51008;51.504;11.548;2023-02-21T18:25:59;10.30;78.86
64599;SHT31;51008;51.504;11.548;2023-02-21T18:31:00;10.21;78.80
64599;SHT31;51008;51.504;11.548;2023-02-21T18:36:01;10.14;79.26
64599;SHT31;51008;51.504;11.548;2023-02-21T18:41:02;10.07;79.52
64599;SHT31;51008;51.504;11.548;2023-02-21T18:46:08;10.06;79.22
64599;SHT31;51008;51.504;11.548;2023-02-21T18:51:11;10.03;79.71
64599;SHT31;51008;51.504;11.548;2023-02-21T18:56:15;10.06;79.59
64599;SHT31;51008;51.504;11.548;2023-02-21T19:01:18;10.03;79.62
64599;SHT31;51008;51.504;11.548;2023-02-21T19:06:21;9.98;79.56
64599;SHT31;51008;51.504;11.548;2023-02-21T19:11:23;9.97;79.61
64599;SHT31;51008;51.504;11.548;2023-02-21T19:16:24;9.90;79.41
64599;SHT31;51008;51.504;11.548;2023-02-21T19:21:25;9.89;79.07
64599;SHT31;51008;51.504;11.548;2023-02-21T19:26:27;9.79;80.03
64599;SHT31;51008;51.504;11.548;2023-02-21T19:31:32;9.72;80.88
64599;SHT31;51008;51.504;11.548;2023-02-21T19:36:35;9.66;81.77
64599;SHT31;51008;51.504;11.548;2023-02-21T19:41:36;9.58;82.27
64599;SHT31;51008;51.504;11.548;2023-02-21T19:46:37;9.56;81.86
64599;SHT31;51008;51.504;11.548;2023-02-21T19:51:38;9.55;81.84
64599;SHT31;51008;51.504;11.548;2023-02-21T19:56:39;9.55;82.20
64599;SHT31;51008;51.504;11.548;2023-02-21T20:01:41;9.55;82.11
64599;SHT31;51008;51.504;11.548;2023-02-21T20:06:42;9.56;82.10
64599;SHT31;51008;51.504;11.548;2023-02-21T20:11:43;9.56;81.91
64599;SHT31;51008;51.504;11.548;2023-02-21T20:16:44;9.62;82.33
64599;SHT31;51008;51.504;11.548;2023-02-21T20:21:45;9.62;82.88
64599;SHT31;51008;51.504;11.548;2023-02-21T20:26:50;9.62;83.69
64599;SHT31;51008;51.504;11.548;2023-02-21T20:31:52;9.63;84.51
64599;SHT31;51008;51.504;11.548;2023-02-21T20:36:54;9.61;85.06
64599;SHT31;51008;51.504;11.548;2023-02-21T20:41:57;9.58;85.43
64599;SHT31;51008;51.504;11.548;2023-02-21T20:46:59;9.55;85.76
64599;SHT31;51008;51.504;11.548;2023-02-21T20:52:00;9.51;85.88
64599;SHT31;51008;51.504;11.548;2023-02-21T20:57:01;9.48;86.05
64599;SHT31;51008;51.504;11.548;2023-02-21T21:02:03;9.45;85.95
64599;SHT31;51008;51.504;11.548;2023-02-21T21:07:08;9.41;85.81
64599;SHT31;51008;51.504;11.548;2023-02-21T21:12:12;9.39;85.96
64599;SHT31;51008;51.504;11.548;2023-02-21T21:17:16;9.41;85.86
64599;SHT31;51008;51.504;11.548;2023-02-21T21:22:24;9.42;85.69
64599;SHT31;51008;51.504;11.548;2023-02-21T21:27:25;9.38;85.43
64599;SHT31;51008;51.504;11.548;2023-02-21T21:32:26;9.34;85.43
64599;SHT31;51008;51.504;11.548;2023-02-21T21:37:28;9.27;85.37
64599;SHT31;51008;51.504;11.548;2023-02-21T21:42:29;9.24;84.98
64599;SHT31;51008;51.504;11.548;2023-02-21T21:47:30;9.25;84.73
64599;SHT31;51008;51.504;11.548;2023-02-21T21:52:31;9.24;84.56
64599;SHT31;51008;51.504;11.548;2023-02-21T21:57:32;9.25;84.36
64599;SHT31;51008;51.504;11.548;2023-02-21T22:02:33;9.18;84.50
64599;SHT31;51008;51.504;11.548;2023-02-21T22:07:34;9.10;84.31
64599;SHT31;51008;51.504;11.548;2023-02-21T22:12:35;9.01;84.34
64599;SHT31;51008;51.504;11.548;2023-02-21T22:17:39;8.86;84.70
64599;SHT31;51008;51.504;11.548;2023-02-21T22:22:40;8.64;85.45
64599;SHT31;51008;51.504;11.548;2023-02-21T22:27:41;8.44;85.29
64599;SHT31;51008;51.504;11.548;2023-02-21T22:32:42;8.41;84.90
64599;SHT31;51008;51.504;11.548;2023-02-21T22:37:45;8.33;84.62
64599;SHT31;51008;51.504;11.548;2023-02-21T22:42:46;8.26;84.99
64599;SHT31;51008;51.504;11.548;2023-02-21T22:47:49;8.10;85.12
64599;SHT31;51008;51.504;11.548;2023-02-21T22:52:58;7.92;85.35
64599;SHT31;51008;51.504;11.548;2023-02-21T22:57:59;7.82;85.70
64599;SHT31;51008;51.504;11.548;2023-02-21T23:03:03;7.74;86.30
64599;SHT31;51008;51.504;11.548;2023-02-21T23:08:04;7.62;86.38
64599;SHT31;51008;51.504;11.548;2023-02-21T23:13:10;7.51;86.46
64599;SHT31;51008;51.504;11.548;2023-02-21T23:18:13;7.43;86.49
64599;SHT31;51008;51.504;11.548;2023-02-21T23:23:14;7.27;87.81
64599;SHT31;51008;51.504;11.548;2023-02-21T23:28:15;7.20;88.53
64599;SHT31;51008;51.504;11.548;2023-02-21T23:33:23;7.38;88.78
64599;SHT31;51008;51.504;11.548;2023-02-21T23:38:25;7.28;88.88
64599;SHT31;51008;51.504;11.548;2023-02-21T23:43:29;7.17;90.65
64599;SHT31;51008;51.504;11.548;2023-02-21T23:48:30;7.24;91.57
64599;SHT31;51008;51.504;11.548;2023-02-21T23:53:31;7.16;91.66
64599;SHT31;51008;51.504;11.548;2023-02-21T23:58:32;7.14;91.88
